sensor_id;sensor_type;location;lat;lon;timestamp;pressure;altitude;pressure_sealevel;temperature;humidity
72857;BME280;62742;52.136;4.500;2022-10-26T00:01:09;101442.91;;;9.80;88.54
72857;BME280;62742;52.136;4.500;2022-10-26T00:03:39;101435.94;;;9.81;88.26
72857;BME280;62742;52.136;4.500;2022-10-26T00:06:18;101442.06;;;9.81;87.93
72857;BME280;62742;52.136;4.500;2022-10-26T00:08:46;101436.81;;;9.80;88.06
72857;BME280;62742;52.136;4.500;2022-10-26T00:11:14;101435.94;;;9.79;88.01
72857;BME280;62742;52.136;4.500;2022-10-26T00:13:41;101430.69;;;9.79;87.75
72857;BME280;62742;52.136;4.500;2022-10-26T00:16:17;101422.81;;;9.79;88.13
72857;BME280;62742;52.136;4.500;2022-10-26T00:18:50;101420.19;;;9.76;88.57
72857;BME280;62742;52.136;4.500;2022-10-26T00:21:17;101414.94;;;9.79;88.44
72857;BME280;62742;52.136;4.500;2022-10-26T00:23:43;101408.78;;;9.79;88.65
72857;BME280;62742;52.136;4.500;2022-10-26T00:26:10;101409.66;;;9.88;88.17
72857;BME280;62742;52.136;4.500;2022-10-26T00:28:37;101407.06;;;9.79;88.26
72857;BME280;62742;52.136;4.500;2022-10-26T00:31:07;101411.44;;;9.77;88.33
72857;BME280;62742;52.136;4.500;2022-10-26T00:33:37;101408.84;;;9.74;88.57
72857;BME280;62742;52.136;4.500;2022-10-26T00:36:04;101395.72;;;9.74;89.01
72857;BME280;62742;52.136;4.500;2022-10-26T00:38:30;101400.09;;;9.69;88.79
72857;BME280;62742;52.136;4.500;2022-10-26T00:40:57;101388.75;;;9.64;88.61
72857;BME280;62742;52.136;4.500;2022-10-26T00:45:50;101392.22;;;9.63;88.56
72857;BME280;62742;52.136;4.500;2022-10-26T00:48:24;101387.84;;;9.63;89.47
72857;BME280;62742;52.136;4.500;2022-10-26T00:51:02;101391.38;;;9.65;89.52
72857;BME280;62742;52.136;4.500;2022-10-26T00:53:42;101393.09;;;9.65;89.09
72857;BME280;62742;52.136;4.500;2022-10-26T00:56:10;101396.59;;;9.68;88.97
72857;BME280;62742;52.136;4.500;2022-10-26T00:58:37;101399.19;;;9.70;88.88
72857;BME280;62742;52.136;4.500;2022-10-26T01:01:05;101393.94;;;9.71;88.97
72857;BME280;62742;52.136;4.500;2022-10-26T01:03:33;101395.72;;;9.74;89.73
72857;BME280;62742;52.136;4.500;2022-10-26T01:06:02;101390.47;;;9.77;89.53
72857;BME280;62742;52.136;4.500;2022-10-26T01:08:30;101394.81;;;9.80;89.44
72857;BME280;62742;52.136;4.500;2022-10-26T01:10:59;101389.56;;;9.80;89.49
72857;BME280;62742;52.136;4.500;2022-10-26T01:13:28;101395.66;;;9.80;89.63
72857;BME280;62742;52.136;4.500;2022-10-26T01:16:11;101388.69;;;9.79;89.54
72857;BME280;62742;52.136;4.500;2022-10-26T01:27:38;101377.28;;;9.85;90.12
72857;BME280;62742;52.136;4.500;2022-10-26T01:39:13;101362.38;;;9.91;90.13
72857;BME280;62742;52.136;4.500;2022-10-26T01:41:54;101354.50;;;9.93;90.44
72857;BME280;62742;52.136;4.500;2022-10-26T01:44:31;101343.16;;;9.92;90.53
72857;BME280;62742;52.136;4.500;2022-10-26T01:47:14;101338.75;;;9.91;90.52
72857;BME280;62742;52.136;4.500;2022-10-26T01:49:50;101336.13;;;9.95;90.59
72857;BME280;62742;52.136;4.500;2022-10-26T01:52:20;101331.81;;;9.83;90.42
72857;BME280;62742;52.136;4.500;2022-10-26T01:54:46;101331.75;;;9.90;90.76
72857;BME280;62742;52.136;4.500;2022-10-26T01:57:16;101325.63;;;9.93;90.76
72857;BME280;62742;52.136;4.500;2022-10-26T02:05:47;101331.75;;;9.90;90.85
72857;BME280;62742;52.136;4.500;2022-10-26T02:11:42;101317.75;;;9.96;91.60
72857;BME280;62742;52.136;4.500;2022-10-26T02:14:17;101311.59;;;10.02;91.45
72857;BME280;62742;52.136;4.500;2022-10-26T02:17:06;101311.56;;;10.03;90.89
72857;BME280;62742;52.136;4.500;2022-10-26T02:20:10;101308.94;;;10.06;91.29
72857;BME280;62742;52.136;4.500;2022-10-26T02:22:42;101315.03;;;10.15;91.43
72857;BME280;62742;52.136;4.500;2022-10-26T02:25:25;101322.91;;;10.15;91.75
72857;BME280;62742;52.136;4.500;2022-10-26T02:28:00;101317.59;;;10.21;91.71
72857;BME280;62742;52.136;4.500;2022-10-26T02:30:32;101328.97;;;10.21;91.81
72857;BME280;62742;52.136;4.500;2022-10-26T02:33:02;101327.22;;;10.23;91.97
72857;BME280;62742;52.136;4.500;2022-10-26T02:35:34;101326.31;;;10.26;91.94
72857;BME280;62742;52.136;4.500;2022-10-26T02:38:07;101320.19;;;10.25;91.65
72857;BME280;62742;52.136;4.500;2022-10-26T02:40:37;101320.22;;;10.24;91.65
72857;BME280;62742;52.136;4.500;2022-10-26T02:43:09;101325.44;;;10.25;91.35
72857;BME280;62742;52.136;4.500;2022-10-26T02:45:58;101311.47;;;10.23;90.96
72857;BME280;62742;52.136;4.500;2022-10-26T02:48:29;101319.34;;;10.23;91.25
72857;BME280;62742;52.136;4.500;2022-10-26T02:51:00;101319.28;;;10.26;91.53
72857;BME280;62742;52.136;4.500;2022-10-26T02:53:46;101314.94;;;10.28;91.64
72857;BME280;62742;52.136;4.500;2022-10-26T02:56:23;101312.31;;;10.27;91.67
72857;BME280;62742;52.136;4.500;2022-10-26T02:58:58;101314.94;;;10.28;91.44
72857;BME280;62742;52.136;4.500;2022-10-26T03:01:29;101306.16;;;10.28;91.48
72857;BME280;62742;52.136;4.500;2022-10-26T03:03:58;101304.41;;;10.32;91.44
72857;BME280;62742;52.136;4.500;2022-10-26T03:06:25;101301.78;;;10.32;91.85
72857;BME280;62742;52.136;4.500;2022-10-26T03:08:52;101301.75;;;10.35;92.08
72857;BME280;62742;52.136;4.500;2022-10-26T03:11:19;101298.28;;;10.34;91.80
72857;BME280;62742;52.136;4.500;2022-10-26T03:13:45;101291.25;;;10.35;91.76
72857;BME280;62742;52.136;4.500;2022-10-26T03:16:11;101294.78;;;10.35;92.24
72857;BME280;62742;52.136;4.500;2022-10-26T03:18:38;101293.84;;;10.41;92.04
72857;BME280;62742;52.136;4.500;2022-10-26T03:21:04;101287.75;;;10.40;91.89
72857;BME280;62742;52.136;4.500;2022-10-26T03:23:31;101289.44;;;10.44;91.94
72857;BME280;62742;52.136;4.500;2022-10-26T03:25:58;101290.31;;;10.42;91.71
72857;BME280;62742;52.136;4.500;2022-10-26T03:28:25;101279.78;;;10.45;91.73
72857;BME280;62742;52.136;4.500;2022-10-26T03:30:52;101285.03;;;10.48;91.95
72857;BME280;62742;52.136;4.500;2022-10-26T03:33:18;101286.81;;;10.46;91.99
72857;BME280;62742;52.136;4.500;2022-10-26T03:35:45;101278.97;;;10.40;91.86
72857;BME280;62742;52.136;4.500;2022-10-26T03:38:11;101285.97;;;10.41;91.96
72857;BME280;62742;52.136;4.500;2022-10-26T03:40:39;101282.47;;;10.40;91.86
72857;BME280;62742;52.136;4.500;2022-10-26T03:43:06;101283.34;;;10.41;91.70
72857;BME280;62742;52.136;4.500;2022-10-26T03:45:32;101274.63;;;10.39;91.71
72857;BME280;62742;52.136;4.500;2022-10-26T03:47:59;101280.75;;;10.38;91.71
72857;BME280;62742;52.136;4.500;2022-10-26T03:50:25;101283.34;;;10.38;92.03
72857;BME280;62742;52.136;4.500;2022-10-26T03:52:52;101280.72;;;10.41;92.04
72857;BME280;62742;52.136;4.500;2022-10-26T03:55:18;101276.34;;;10.40;91.97
72857;BME280;62742;52.136;4.500;2022-10-26T03:57:45;101273.69;;;10.41;92.11
72857;BME280;62742;52.136;4.500;2022-10-26T04:00:14;101275.47;;;10.41;91.86
72857;BME280;62742;52.136;4.500;2022-10-26T04:02:43;101273.69;;;10.43;91.93
72857;BME280;62742;52.136;4.500;2022-10-26T04:05:16;101278.09;;;10.42;92.02
72857;BME280;62742;52.136;4.500;2022-10-26T04:07:43;101284.19;;;10.44;91.88
72857;BME280;62742;52.136;4.500;2022-10-26T04:10:10;101285.06;;;10.45;92.05
72857;BME280;62742;52.136;4.500;2022-10-26T04:12:37;101275.44;;;10.45;91.81
72857;BME280;62742;52.136;4.500;2022-10-26T04:15:04;101278.94;;;10.43;91.36
72857;BME280;62742;52.136;4.500;2022-10-26T04:17:32;101278.97;;;10.37;91.55
72857;BME280;62742;52.136;4.500;2022-10-26T04:19:58;101272.00;;;10.34;91.83
72857;BME280;62742;52.136;4.500;2022-10-26T04:22:25;101275.50;;;10.36;91.72
72857;BME280;62742;52.136;4.500;2022-10-26T04:24:51;101280.75;;;10.38;91.75
72857;BME280;62742;52.136;4.500;2022-10-26T04:27:18;101287.69;;;10.43;91.68
72857;BME280;62742;52.136;4.500;2022-10-26T04:29:45;101284.22;;;10.40;91.90
72857;BME280;62742;52.136;4.500;2022-10-26T04:32:11;101278.94;;;10.41;91.94
72857;BME280;62742;52.136;4.500;2022-10-26T04:34:38;101273.72;;;10.40;91.75
72857;BME280;62742;52.136;4.500;2022-10-26T04:37:04;101271.94;;;10.42;92.14
72857;BME280;62742;52.136;4.500;2022-10-26T04:39:31;101276.31;;;10.44;92.30
72857;BME280;62742;52.136;4.500;2022-10-26T04:41:57;101271.91;;;10.46;92.23
72857;BME280;62742;52.136;4.500;2022-10-26T04:44:23;101278.91;;;10.49;92.84
72857;BME280;62742;52.136;4.500;2022-10-26T04:46:50;101274.50;;;10.53;92.90
72857;BME280;62742;52.136;4.500;2022-10-26T04:49:16;101274.47;;;10.54;93.02
72857;BME280;62742;52.136;4.500;2022-10-26T04:51:43;101266.59;;;10.56;93.02
72857;BME280;62742;52.136;4.500;2022-10-26T04:54:10;101272.69;;;10.59;92.79
72857;BME280;62742;52.136;4.500;2022-10-26T04:56:36;101270.91;;;10.60;93.07
72857;BME280;62742;52.136;4.500;2022-10-26T04:59:03;101264.78;;;10.62;93.51
72857;BME280;62742;52.136;4.500;2022-10-26T05:01:30;101265.63;;;10.68;93.12
72857;BME280;62742;52.136;4.500;2022-10-26T05:03:57;101269.97;;;10.67;93.24
72857;BME280;62742;52.136;4.500;2022-10-26T05:06:23;101269.09;;;10.70;93.45
72857;BME280;62742;52.136;4.500;2022-10-26T05:08:50;101276.06;;;10.71;93.67
72857;BME280;62742;52.136;4.500;2022-10-26T05:11:16;101275.19;;;10.73;93.76
72857;BME280;62742;52.136;4.500;2022-10-26T05:13:43;101265.50;;;10.77;93.95
72857;BME280;62742;52.136;4.500;2022-10-26T05:16:09;101263.72;;;10.79;93.93
72857;BME280;62742;52.136;4.500;2022-10-26T05:18:36;101260.22;;;10.83;94.01
72857;BME280;62742;52.136;4.500;2022-10-26T05:21:02;101257.53;;;10.84;93.69
72857;BME280;62742;52.136;4.500;2022-10-26T05:23:29;101253.16;;;10.85;93.77
72857;BME280;62742;52.136;4.500;2022-10-26T05:25:55;101266.31;;;10.87;93.87
72857;BME280;62742;52.136;4.500;2022-10-26T05:28:22;101267.13;;;10.90;93.90
72857;BME280;62742;52.136;4.500;2022-10-26T05:30:48;101263.56;;;10.94;93.83
72857;BME280;62742;52.136;4.500;2022-10-26T05:33:15;101266.22;;;10.94;94.10
72857;BME280;62742;52.136;4.500;2022-10-26T05:35:41;101267.88;;;11.01;94.17
72857;BME280;62742;52.136;4.500;2022-10-26T05:38:10;101281.91;;;11.03;93.83
72857;BME280;62742;52.136;4.500;2022-10-26T05:40:50;101276.59;;;11.05;94.17
72857;BME280;62742;52.136;4.500;2022-10-26T05:43:19;101273.97;;;11.07;93.72
72857;BME280;62742;52.136;4.500;2022-10-26T05:45:49;101271.28;;;11.13;93.67
72857;BME280;62742;52.136;4.500;2022-10-26T05:48:16;101276.59;;;11.05;93.51
72857;BME280;62742;52.136;4.500;2022-10-26T05:50:43;101268.81;;;10.99;93.46
72857;BME280;62742;52.136;4.500;2022-10-26T05:53:10;101264.41;;;10.98;93.24
72857;BME280;62742;52.136;4.500;2022-10-26T05:55:37;101272.28;;;10.99;93.34
72857;BME280;62742;52.136;4.500;2022-10-26T05:58:10;101274.06;;;10.97;93.17
72857;BME280;62742;52.136;4.500;2022-10-26T06:00:51;101256.63;;;10.92;92.93
72857;BME280;62742;52.136;4.500;2022-10-26T06:06:36;101261.97;;;10.79;93.10
72857;BME280;62742;52.136;4.500;2022-10-26T06:09:10;101261.13;;;10.77;93.08
72857;BME280;62742;52.136;4.500;2022-10-26T06:11:37;101261.94;;;10.81;93.13
72857;BME280;62742;52.136;4.500;2022-10-26T06:14:04;101260.22;;;10.83;92.86
72857;BME280;62742;52.136;4.500;2022-10-26T06:25:26;101259.47;;;10.67;93.19
72857;BME280;62742;52.136;4.500;2022-10-26T06:31:08;101256.81;;;10.69;92.83
72857;BME280;62742;52.136;4.500;2022-10-26T06:33:37;101266.50;;;10.63;92.80
72857;BME280;62742;52.136;4.500;2022-10-26T06:36:16;101269.13;;;10.66;92.96
72857;BME280;62742;52.136;4.500;2022-10-26T06:38:54;101258.63;;;10.62;92.91
72857;BME280;62742;52.136;4.500;2022-10-26T06:41:22;101264.75;;;10.64;92.83
72857;BME280;62742;52.136;4.500;2022-10-26T06:43:49;101269.97;;;10.69;92.74
72857;BME280;62742;52.136;4.500;2022-10-26T06:52:19;101295.38;;;10.70;92.98
72857;BME280;62742;52.136;4.500;2022-10-26T06:55:03;101290.09;;;10.73;92.84
72857;BME280;62742;52.136;4.500;2022-10-26T06:57:34;101296.19;;;10.76;92.81
72857;BME280;62742;52.136;4.500;2022-10-26T07:00:06;101283.03;;;10.78;92.78
72857;BME280;62742;52.136;4.500;2022-10-26T07:02:39;101281.28;;;10.78;92.73
72857;BME280;62742;52.136;4.500;2022-10-26T07:05:06;101286.53;;;10.78;92.37
72857;BME280;62742;52.136;4.500;2022-10-26T07:07:42;101283.06;;;10.75;92.89
72857;BME280;62742;52.136;4.500;2022-10-26T07:10:11;101282.16;;;10.74;92.54
72857;BME280;62742;52.136;4.500;2022-10-26T07:12:40;101288.34;;;10.72;92.66
72857;BME280;62742;52.136;4.500;2022-10-26T07:15:06;101304.09;;;10.75;92.51
72857;BME280;62742;52.136;4.500;2022-10-26T07:17:47;101307.53;;;10.83;92.47
72857;BME280;62742;52.136;4.500;2022-10-26T07:20:16;101310.97;;;10.88;92.92
72857;BME280;62742;52.136;4.500;2022-10-26T07:22:50;101313.56;;;10.93;92.89
72857;BME280;62742;52.136;4.500;2022-10-26T07:25:18;101321.38;;;11.00;92.42
72857;BME280;62742;52.136;4.500;2022-10-26T07:27:44;101321.25;;;11.11;92.11
72857;BME280;62742;52.136;4.500;2022-10-26T07:30:11;101318.59;;;11.14;92.68
72857;BME280;62742;52.136;4.500;2022-10-26T07:32:38;101315.88;;;11.23;92.37
72857;BME280;62742;52.136;4.500;2022-10-26T07:35:05;101321.09;;;11.27;92.45
72857;BME280;62742;52.136;4.500;2022-10-26T07:37:32;101332.56;;;11.21;92.75
72857;BME280;62742;52.136;4.500;2022-10-26T07:39:58;101340.38;;;11.27;93.23
72857;BME280;62742;52.136;4.500;2022-10-26T07:42:25;101345.53;;;11.39;93.25
72857;BME280;62742;52.136;4.500;2022-10-26T07:44:51;101348.97;;;11.46;93.43
72857;BME280;62742;52.136;4.500;2022-10-26T07:47:18;101341.78;;;11.59;92.99
72857;BME280;62742;52.136;4.500;2022-10-26T07:49:44;101352.13;;;11.74;92.17
72857;BME280;62742;52.136;4.500;2022-10-26T07:52:11;101353.13;;;11.64;92.68
72857;BME280;62742;52.136;4.500;2022-10-26T07:54:37;101364.47;;;11.72;93.84
72857;BME280;62742;52.136;4.500;2022-10-26T07:57:04;101378.25;;;11.96;93.53
72857;BME280;62742;52.136;4.500;2022-10-26T07:59:30;101370.09;;;12.14;93.16
72857;BME280;62742;52.136;4.500;2022-10-26T08:01:57;101363.88;;;12.19;93.38
72857;BME280;62742;52.136;4.500;2022-10-26T08:04:23;101370.72;;;12.32;93.37
72857;BME280;62742;52.136;4.500;2022-10-26T08:06:50;101367.94;;;12.41;93.54
72857;BME280;62742;52.136;4.500;2022-10-26T08:09:16;101359.94;;;12.50;93.15
72857;BME280;62742;52.136;4.500;2022-10-26T08:11:43;101351.84;;;12.61;92.93
72857;BME280;62742;52.136;4.500;2022-10-26T08:14:09;101355.19;;;12.72;92.45
72857;BME280;62742;52.136;4.500;2022-10-26T08:16:37;101345.38;;;12.79;92.67
72857;BME280;62742;52.136;4.500;2022-10-26T08:19:06;101350.34;;;12.98;91.60
72857;BME280;62742;52.136;4.500;2022-10-26T08:21:33;101350.22;;;13.05;90.96
72857;BME280;62742;52.136;4.500;2022-10-26T08:24:00;101351.16;;;13.01;91.74
72857;BME280;62742;52.136;4.500;2022-10-26T08:26:26;101347.66;;;13.01;92.49
72857;BME280;62742;52.136;4.500;2022-10-26T08:28:54;101345.81;;;13.06;92.68
72857;BME280;62742;52.136;4.500;2022-10-26T08:31:20;101335.22;;;13.07;93.12
72857;BME280;62742;52.136;4.500;2022-10-26T08:33:47;101340.19;;;13.26;92.81
72857;BME280;62742;52.136;4.500;2022-10-26T08:36:22;101354.75;;;13.47;92.81
72857;BME280;62742;52.136;4.500;2022-10-26T08:38:51;101356.88;;;13.73;92.50
72857;BME280;62742;52.136;4.500;2022-10-26T08:41:23;101367.88;;;13.95;91.14
72857;BME280;62742;52.136;4.500;2022-10-26T08:44:20;101369.16;;;14.18;90.72
72857;BME280;62742;52.136;4.500;2022-10-26T08:46:57;101383.66;;;14.39;90.13
72857;BME280;62742;52.136;4.500;2022-10-26T08:50:02;101382.84;;;14.76;88.47
72857;BME280;62742;52.136;4.500;2022-10-26T08:56:03;101371.69;;;15.32;84.05
72857;BME280;62742;52.136;4.500;2022-10-26T08:58:47;101385.13;;;15.24;85.57
72857;BME280;62742;52.136;4.500;2022-10-26T09:01:19;101377.09;;;15.29;85.64
72857;BME280;62742;52.136;4.500;2022-10-26T09:03:46;101376.00;;;15.36;84.31
72857;BME280;62742;52.136;4.500;2022-10-26T09:06:18;101379.09;;;15.52;83.66
72857;BME280;62742;52.136;4.500;2022-10-26T09:11:55;101400.75;;;15.99;82.44
72857;BME280;62742;52.136;4.500;2022-10-26T09:14:53;101398.03;;;16.02;80.85
72857;BME280;62742;52.136;4.500;2022-10-26T09:17:57;101399.53;;;16.11;81.99
72857;BME280;62742;52.136;4.500;2022-10-26T09:23:49;101392.47;;;16.40;81.71
72857;BME280;62742;52.136;4.500;2022-10-26T09:26:36;101404.25;;;16.59;80.31
72857;BME280;62742;52.136;4.500;2022-10-26T09:29:30;101402.22;;;16.68;78.79
72857;BME280;62742;52.136;4.500;2022-10-26T09:32:03;101402.09;;;16.72;78.97
72857;BME280;62742;52.136;4.500;2022-10-26T09:34:41;101394.22;;;16.96;79.00
72857;BME280;62742;52.136;4.500;2022-10-26T09:37:33;101414.09;;;17.11;77.55
72857;BME280;62742;52.136;4.500;2022-10-26T09:45:44;101421.97;;;17.41;77.55
72857;BME280;62742;52.136;4.500;2022-10-26T09:48:42;101429.53;;;17.51;77.34
72857;BME280;62742;52.136;4.500;2022-10-26T09:51:17;101443.75;;;17.25;78.27
72857;BME280;62742;52.136;4.500;2022-10-26T09:53:43;101439.28;;;17.26;77.78
72857;BME280;62742;52.136;4.500;2022-10-26T09:56:13;101428.03;;;17.17;78.37
72857;BME280;62742;52.136;4.500;2022-10-26T10:01:34;101445.50;;;17.25;78.73
72857;BME280;62742;52.136;4.500;2022-10-26T10:06:39;101458.31;;;17.38;78.40
72857;BME280;62742;52.136;4.500;2022-10-26T10:09:10;101458.50;;;17.34;79.03
72857;BME280;62742;52.136;4.500;2022-10-26T10:11:52;101464.09;;;17.51;77.58
72857;BME280;62742;52.136;4.500;2022-10-26T10:14:23;101466.09;;;17.45;78.89
72857;BME280;62742;52.136;4.500;2022-10-26T10:17:00;101483.56;;;17.52;78.18
72857;BME280;62742;52.136;4.500;2022-10-26T10:19:34;101490.63;;;17.53;77.78
72857;BME280;62742;52.136;4.500;2022-10-26T10:24:55;101492.66;;;17.45;77.74
72857;BME280;62742;52.136;4.500;2022-10-26T10:27:24;101497.53;;;17.57;77.92
72857;BME280;62742;52.136;4.500;2022-10-26T10:29:54;101500.00;;;17.36;78.65
72857;BME280;62742;52.136;4.500;2022-10-26T10:32:25;101502.63;;;17.38;78.96
72857;BME280;62742;52.136;4.500;2022-10-26T10:34:56;101503.53;;;17.37;79.15
72857;BME280;62742;52.136;4.500;2022-10-26T10:37:32;101498.69;;;17.50;78.25
72857;BME280;62742;52.136;4.500;2022-10-26T10:40:07;101510.88;;;17.55;78.32
72857;BME280;62742;52.136;4.500;2022-10-26T10:42:41;101510.13;;;17.52;78.45
72857;BME280;62742;52.136;4.500;2022-10-26T10:45:29;101501.91;;;17.60;78.18
72857;BME280;62742;52.136;4.500;2022-10-26T10:48:19;101513.19;;;17.66;78.52
72857;BME280;62742;52.136;4.500;2022-10-26T10:53:44;101504.13;;;17.99;77.84
72857;BME280;62742;52.136;4.500;2022-10-26T11:02:28;101512.34;;;18.63;76.58
72857;BME280;62742;52.136;4.500;2022-10-26T11:08:27;101524.41;;;18.96;73.66
72857;BME280;62742;52.136;4.500;2022-10-26T11:11:05;101525.66;;;18.87;74.46
72857;BME280;62742;52.136;4.500;2022-10-26T11:13:57;101535.22;;;18.93;73.52
72857;BME280;62742;52.136;4.500;2022-10-26T11:16:35;101528.72;;;18.76;74.40
72857;BME280;62742;52.136;4.500;2022-10-26T11:21:37;101544.97;;;18.92;73.67
72857;BME280;62742;52.136;4.500;2022-10-26T11:24:11;101548.00;;;19.06;72.98
72857;BME280;62742;52.136;4.500;2022-10-26T11:26:47;101541.16;;;19.21;72.52
72857;BME280;62742;52.136;4.500;2022-10-26T11:32:24;101544.03;;;19.39;71.50
72857;BME280;62742;52.136;4.500;2022-10-26T11:37:55;101553.16;;;19.76;70.91
72857;BME280;62742;52.136;4.500;2022-10-26T11:40:43;101552.91;;;19.60;71.70
72857;BME280;62742;52.136;4.500;2022-10-26T11:46:12;101550.75;;;19.48;71.71
72857;BME280;62742;52.136;4.500;2022-10-26T11:54:33;101553.34;;;19.71;70.62
72857;BME280;62742;52.136;4.500;2022-10-26T11:57:06;101549.16;;;19.86;70.23
72857;BME280;62742;52.136;4.500;2022-10-26T11:59:38;101553.88;;;19.79;69.21
72857;BME280;62742;52.136;4.500;2022-10-26T12:02:18;101559.63;;;19.91;69.71
72857;BME280;62742;52.136;4.500;2022-10-26T12:07:45;101560.97;;;20.01;69.12
72857;BME280;62742;52.136;4.500;2022-10-26T12:10:34;101568.63;;;20.29;68.59
72857;BME280;62742;52.136;4.500;2022-10-26T12:13:26;101564.31;;;20.46;68.45
72857;BME280;62742;52.136;4.500;2022-10-26T12:19:04;101560.50;;;20.72;66.90
72857;BME280;62742;52.136;4.500;2022-10-26T12:21:43;101570.16;;;20.74;66.45
72857;BME280;62742;52.136;4.500;2022-10-26T12:24:25;101567.50;;;20.54;66.73
72857;BME280;62742;52.136;4.500;2022-10-26T12:26:59;101570.31;;;20.51;67.33
72857;BME280;62742;52.136;4.500;2022-10-26T12:29:33;101578.84;;;20.59;67.17
72857;BME280;62742;52.136;4.500;2022-10-26T12:32:47;101577.84;;;20.62;67.46
72857;BME280;62742;52.136;4.500;2022-10-26T12:37:49;101585.97;;;20.40;66.08
72857;BME280;62742;52.136;4.500;2022-10-26T12:45:40;101585.22;;;19.95;68.75
72857;BME280;62742;52.136;4.500;2022-10-26T12:48:40;101584.56;;;20.31;66.26
72857;BME280;62742;52.136;4.500;2022-10-26T12:54:08;101585.09;;;20.39;65.95
72857;BME280;62742;52.136;4.500;2022-10-26T12:57:23;101595.03;;;20.35;65.71
72857;BME280;62742;52.136;4.500;2022-10-26T13:00:01;101586.47;;;20.68;65.21
72857;BME280;62742;52.136;4.500;2022-10-26T13:05:57;101584.94;;;20.63;65.96
72857;BME280;62742;52.136;4.500;2022-10-26T13:08:45;101591.03;;;20.46;66.02
72857;BME280;62742;52.136;4.500;2022-10-26T13:11:28;101592.09;;;20.62;65.18
72857;BME280;62742;52.136;4.500;2022-10-26T13:14:03;101586.63;;;20.84;64.96
72857;BME280;62742;52.136;4.500;2022-10-26T13:16:33;101594.56;;;20.86;64.85
72857;BME280;62742;52.136;4.500;2022-10-26T13:19:01;101597.97;;;21.08;64.53
72857;BME280;62742;52.136;4.500;2022-10-26T13:21:27;101591.91;;;20.86;65.33
72857;BME280;62742;52.136;4.500;2022-10-26T13:26:25;101603.00;;;20.77;66.81
72857;BME280;62742;52.136;4.500;2022-10-26T13:28:58;101611.00;;;20.77;64.93
72857;BME280;62742;52.136;4.500;2022-10-26T13:34:02;101624.91;;;20.85;65.90
72857;BME280;62742;52.136;4.500;2022-10-26T13:39:30;101630.97;;;20.88;65.14
72857;BME280;62742;52.136;4.500;2022-10-26T13:42:02;101633.19;;;20.79;65.66
72857;BME280;62742;52.136;4.500;2022-10-26T13:44:59;101637.47;;;20.83;65.63
72857;BME280;62742;52.136;4.500;2022-10-26T13:50:16;101630.03;;;20.89;65.36
72857;BME280;62742;52.136;4.500;2022-10-26T13:52:50;101635.50;;;21.05;64.63
72857;BME280;62742;52.136;4.500;2022-10-26T13:55:25;101637.97;;;20.91;65.29
72857;BME280;62742;52.136;4.500;2022-10-26T14:00:30;101643.72;;;20.82;65.46
72857;BME280;62742;52.136;4.500;2022-10-26T14:02:57;101641.50;;;20.72;65.25
72857;BME280;62742;52.136;4.500;2022-10-26T14:05:23;101645.09;;;20.71;66.10
72857;BME280;62742;52.136;4.500;2022-10-26T14:07:57;101649.50;;;20.72;65.64
72857;BME280;62742;52.136;4.500;2022-10-26T14:10:37;101657.31;;;20.57;65.95
72857;BME280;62742;52.136;4.500;2022-10-26T14:13:08;101657.50;;;20.52;65.59
72857;BME280;62742;52.136;4.500;2022-10-26T14:15:44;101656.13;;;20.43;65.71
72857;BME280;62742;52.136;4.500;2022-10-26T14:18:18;101665.78;;;20.25;66.75
72857;BME280;62742;52.136;4.500;2022-10-26T14:20:59;101668.84;;;20.16;67.48
72857;BME280;62742;52.136;4.500;2022-10-26T14:23:56;101676.81;;;20.17;66.37
72857;BME280;62742;52.136;4.500;2022-10-26T14:26:30;101673.25;;;20.17;66.32
72857;BME280;62742;52.136;4.500;2022-10-26T14:29:22;101682.72;;;20.04;66.81
72857;BME280;62742;52.136;4.500;2022-10-26T14:31:50;101683.59;;;20.04;67.25
72857;BME280;62742;52.136;4.500;2022-10-26T14:34:20;101684.56;;;19.79;68.25
72857;BME280;62742;52.136;4.500;2022-10-26T14:36:53;101691.72;;;19.79;68.13
72857;BME280;62742;52.136;4.500;2022-10-26T14:39:42;101692.47;;;19.83;68.58
72857;BME280;62742;52.136;4.500;2022-10-26T14:44:59;101693.22;;;19.62;69.57
72857;BME280;62742;52.136;4.500;2022-10-26T14:47:28;101697.53;;;19.67;69.90
72857;BME280;62742;52.136;4.500;2022-10-26T14:49:58;101694.84;;;19.67;68.80
72857;BME280;62742;52.136;4.500;2022-10-26T14:52:29;101698.31;;;19.69;69.18
72857;BME280;62742;52.136;4.500;2022-10-26T14:55:13;101699.84;;;19.76;68.43
72857;BME280;62742;52.136;4.500;2022-10-26T14:57:43;101709.03;;;19.67;69.29
72857;BME280;62742;52.136;4.500;2022-10-26T15:00:18;101709.91;;;19.68;69.06
72857;BME280;62742;52.136;4.500;2022-10-26T15:02:48;101712.41;;;19.72;69.00
72857;BME280;62742;52.136;4.500;2022-10-26T15:07:59;101708.53;;;19.57;69.25
72857;BME280;62742;52.136;4.500;2022-10-26T15:13:30;101717.09;;;19.66;69.40
72857;BME280;62742;52.136;4.500;2022-10-26T15:16:21;101708.63;;;19.56;69.79
72857;BME280;62742;52.136;4.500;2022-10-26T15:18:51;101709.31;;;19.61;69.35
72857;BME280;62742;52.136;4.500;2022-10-26T15:21:29;101713.41;;;19.70;69.21
72857;BME280;62742;52.136;4.500;2022-10-26T15:24:00;101726.88;;;19.43;70.30
72857;BME280;62742;52.136;4.500;2022-10-26T15:26:28;101730.34;;;19.45;69.79
72857;BME280;62742;52.136;4.500;2022-10-26T15:28:55;101735.03;;;19.38;70.22
72857;BME280;62742;52.136;4.500;2022-10-26T15:31:31;101736.03;;;19.36;70.56
72857;BME280;62742;52.136;4.500;2022-10-26T15:36:38;101755.16;;;19.23;71.50
72857;BME280;62742;52.136;4.500;2022-10-26T15:39:06;101763.38;;;19.17;71.09
72857;BME280;62742;52.136;4.500;2022-10-26T15:41:37;101756.94;;;19.23;70.94
72857;BME280;62742;52.136;4.500;2022-10-26T15:44:13;101754.13;;;19.28;70.49
72857;BME280;62742;52.136;4.500;2022-10-26T15:46:44;101750.75;;;19.22;70.41